createdAt,value
2018-12-06T00:00:37.748Z,3.16
2018-12-06T00:03:05.416Z,3.18
2018-12-06T00:05:33.008Z,3.20
2018-12-06T00:08:12.616Z,3.22
2018-12-06T00:10:40.285Z,3.23
2018-12-06T00:13:07.941Z,3.23
2018-12-06T00:15:35.537Z,3.25
2018-12-06T00:18:03.875Z,3.26
2018-12-06T00:20:31.491Z,3.25
2018-12-06T00:22:59.072Z,3.28
2018-12-06T00:25:26.681Z,3.27
2018-12-06T00:27:55.800Z,3.27
2018-12-06T00:30:32.124Z,3.29
2018-12-06T00:32:59.792Z,3.29
2018-12-06T00:35:27.457Z,3.29
2018-12-06T00:37:55.116Z,3.29
2018-12-06T00:40:22.789Z,3.30
2018-12-06T00:42:50.445Z,3.31
2018-12-06T00:45:18.104Z,3.31
2018-12-06T00:47:45.777Z,3.32
2018-12-06T00:50:13.433Z,3.31
2018-12-06T00:52:41.094Z,3.32
2018-12-06T00:55:08.749Z,3.31
2018-12-06T00:57:36.412Z,3.30
2018-12-06T01:00:06.506Z,3.29
2018-12-06T01:02:34.208Z,3.30
2018-12-06T01:05:01.875Z,3.30
2018-12-06T01:07:29.533Z,3.30
2018-12-06T01:09:57.192Z,3.29
2018-12-06T01:12:24.787Z,3.30
2018-12-06T01:14:52.624Z,3.31
2018-12-06T01:17:20.285Z,3.31
2018-12-06T01:19:47.953Z,3.31
2018-12-06T01:22:15.608Z,3.31
2018-12-06T01:24:43.264Z,3.32
2018-12-06T01:27:10.941Z,3.32
2018-12-06T01:29:38.590Z,3.33
2018-12-06T01:32:06.250Z,3.33
2018-12-06T01:34:33.920Z,3.31
2018-12-06T01:37:01.529Z,3.35
2018-12-06T01:39:29.209Z,3.35
2018-12-06T01:41:56.913Z,3.36
2018-12-06T01:44:24.572Z,3.37
2018-12-06T01:46:52.236Z,3.39
2018-12-06T01:49:19.908Z,3.40
2018-12-06T01:51:47.572Z,3.41
2018-12-06T01:54:15.157Z,3.41
2018-12-06T01:56:42.779Z,3.42
2018-12-06T01:59:10.439Z,3.43
2018-12-06T02:01:38.045Z,3.44
2018-12-06T02:04:05.676Z,3.44
2018-12-06T02:06:33.279Z,3.44
2018-12-06T02:09:00.895Z,3.45
2018-12-06T02:11:28.556Z,3.45
2018-12-06T02:13:56.220Z,3.45
2018-12-06T02:16:23.880Z,3.44
2018-12-06T02:18:51.616Z,3.41
2018-12-06T02:21:19.207Z,3.40
2018-12-06T02:23:46.872Z,3.38
2018-12-06T02:26:14.527Z,3.37
2018-12-06T02:28:42.201Z,3.34
2018-12-06T02:31:09.858Z,3.33
2018-12-06T02:33:37.486Z,3.32
2018-12-06T02:36:05.075Z,3.31
2018-12-06T02:38:32.739Z,3.30
2018-12-06T02:41:00.408Z,3.30
2018-12-06T02:43:28.011Z,3.31
2018-12-06T02:45:55.760Z,3.31
2018-12-06T02:48:23.402Z,3.30
2018-12-06T02:50:51.055Z,3.30
2018-12-06T02:53:18.663Z,3.29
2018-12-06T02:55:46.284Z,3.30
2018-12-06T02:58:13.944Z,3.30
2018-12-06T03:00:41.607Z,3.32
2018-12-06T03:03:09.355Z,3.32
2018-12-06T03:05:37.043Z,3.35
2018-12-06T03:08:04.805Z,3.36
2018-12-06T03:10:32.387Z,3.39
2018-12-06T03:13:00.021Z,3.39
2018-12-06T03:15:27.639Z,3.41
2018-12-06T03:17:55.347Z,3.41
2018-12-06T03:20:23.012Z,3.43
2018-12-06T03:22:50.620Z,3.45
2018-12-06T03:25:18.241Z,3.47
2018-12-06T03:27:45.899Z,3.49
2018-12-06T03:30:13.561Z,3.49
2018-12-06T03:32:41.533Z,3.51
2018-12-06T03:35:09.182Z,3.53
2018-12-06T03:37:36.851Z,3.54
2018-12-06T03:40:05.855Z,3.55
2018-12-06T03:42:33.516Z,3.57
2018-12-06T03:45:01.180Z,3.57
2018-12-06T03:47:28.762Z,3.58
2018-12-06T03:49:56.480Z,3.59
2018-12-06T03:52:24.161Z,3.59
2018-12-06T03:54:51.767Z,3.61
2018-12-06T03:57:19.393Z,3.62
2018-12-06T03:59:47.053Z,3.64
2018-12-06T04:02:14.717Z,3.65
2018-12-06T04:04:42.372Z,3.68
2018-12-06T04:07:10.041Z,3.67
2018-12-06T04:09:37.700Z,3.70
2018-12-06T04:12:05.369Z,3.70
2018-12-06T04:14:32.988Z,3.72
2018-12-06T04:17:00.587Z,3.72
2018-12-06T04:19:28.252Z,3.74
2018-12-06T04:21:55.915Z,3.74
2018-12-06T04:24:23.589Z,3.73
2018-12-06T04:26:51.248Z,3.74
2018-12-06T04:29:18.842Z,3.75
2018-12-06T04:31:46.457Z,3.76
2018-12-06T04:34:14.057Z,3.77
2018-12-06T04:36:41.793Z,3.77
2018-12-06T04:39:09.390Z,3.79
2018-12-06T04:41:37.051Z,3.80
2018-12-06T04:44:04.686Z,3.81
2018-12-06T04:46:32.357Z,3.83
2018-12-06T04:49:00.012Z,3.83
2018-12-06T04:51:27.668Z,3.84
2018-12-06T04:53:55.333Z,3.85
2018-12-06T04:56:23.003Z,3.86
2018-12-06T04:58:50.657Z,3.85
2018-12-06T05:01:18.322Z,3.86
2018-12-06T05:03:45.989Z,3.86
2018-12-06T05:06:13.687Z,3.87
2018-12-06T05:08:41.313Z,3.87
2018-12-06T05:11:08.985Z,3.89
2018-12-06T05:13:36.642Z,3.89
2018-12-06T05:16:04.405Z,3.89
2018-12-06T05:18:31.997Z,3.92
2018-12-06T05:20:59.629Z,3.93
2018-12-06T05:23:38.662Z,3.94
2018-12-06T05:26:06.425Z,3.95
2018-12-06T05:28:34.085Z,3.96
2018-12-06T05:31:01.745Z,3.98
2018-12-06T05:33:29.405Z,4.00
2018-12-06T05:35:57.078Z,4.00
2018-12-06T05:38:24.733Z,4.02
2018-12-06T05:40:52.401Z,4.03
2018-12-06T05:43:20.069Z,4.05
2018-12-06T05:45:47.720Z,4.05
2018-12-06T05:48:15.575Z,4.07
2018-12-06T05:50:43.220Z,4.08
2018-12-06T05:53:10.913Z,4.10
2018-12-06T05:55:38.581Z,4.11
2018-12-06T05:58:06.352Z,4.10
2018-12-06T06:00:34.009Z,4.09
2018-12-06T06:03:02.297Z,4.10
2018-12-06T06:05:29.958Z,4.10
2018-12-06T06:07:57.596Z,4.09
2018-12-06T06:10:25.185Z,4.11
2018-12-06T06:12:52.814Z,4.11
2018-12-06T06:15:20.401Z,4.11
2018-12-06T06:17:48.053Z,4.10
2018-12-06T06:20:15.820Z,4.12
2018-12-06T06:22:43.572Z,4.13
2018-12-06T06:25:11.249Z,4.14
2018-12-06T06:27:38.914Z,4.14
2018-12-06T06:30:07.093Z,4.16
2018-12-06T06:32:34.753Z,4.18
2018-12-06T06:35:02.424Z,4.19
2018-12-06T06:37:30.072Z,4.21
2018-12-06T06:39:57.737Z,4.23
2018-12-06T06:42:25.912Z,4.25
2018-12-06T06:44:53.527Z,4.27
2018-12-06T06:47:21.145Z,4.29
2018-12-06T06:49:48.761Z,4.31
2018-12-06T06:52:16.342Z,4.33
2018-12-06T06:54:43.957Z,4.33
2018-12-06T06:57:11.600Z,4.33
2018-12-06T06:59:39.225Z,4.32
2018-12-06T07:02:06.909Z,4.35
2018-12-06T07:04:34.568Z,4.35
2018-12-06T07:07:02.324Z,4.38
2018-12-06T07:09:30.000Z,4.39
2018-12-06T07:11:57.668Z,4.40
2018-12-06T07:14:25.533Z,4.41
2018-12-06T07:16:53.165Z,4.44
2018-12-06T07:19:20.757Z,4.45
2018-12-06T07:21:48.369Z,4.50
2018-12-06T07:24:15.988Z,4.54
2018-12-06T07:26:43.722Z,4.56
2018-12-06T07:29:11.410Z,4.56
2018-12-06T07:31:39.064Z,4.53
2018-12-06T07:34:06.697Z,4.57
2018-12-06T07:36:34.305Z,4.57
2018-12-06T07:39:01.961Z,4.58
2018-12-06T07:41:29.669Z,4.58
2018-12-06T07:43:57.285Z,4.60
2018-12-06T07:46:24.937Z,4.62
2018-12-06T07:48:52.550Z,4.63
2018-12-06T07:51:20.265Z,4.65
2018-12-06T07:53:47.932Z,4.68
2018-12-06T07:56:15.597Z,4.71
2018-12-06T07:58:43.256Z,4.73
2018-12-06T08:01:10.866Z,4.76
2018-12-06T08:03:38.452Z,4.79
2018-12-06T08:06:06.114Z,4.68
2018-12-06T08:08:33.706Z,4.83
2018-12-06T08:11:01.361Z,4.84
2018-12-06T08:13:29.024Z,4.80
2018-12-06T08:15:56.697Z,4.85
2018-12-06T08:18:24.443Z,4.87
2018-12-06T08:20:52.121Z,4.87
2018-12-06T08:23:20.198Z,4.91
2018-12-06T08:25:47.856Z,4.91
2018-12-06T08:28:15.517Z,4.94
2018-12-06T08:30:43.181Z,4.96
2018-12-06T08:33:10.841Z,4.99
2018-12-06T08:35:38.512Z,5.01
2018-12-06T08:38:06.168Z,5.01
2018-12-06T08:40:33.797Z,5.00
2018-12-06T08:43:01.505Z,5.03
2018-12-06T08:45:29.165Z,5.01
2018-12-06T08:47:56.926Z,5.06
2018-12-06T08:50:24.589Z,5.06
2018-12-06T08:52:52.249Z,5.06
2018-12-06T08:55:19.914Z,5.04
2018-12-06T08:57:47.573Z,5.03
2018-12-06T09:00:15.241Z,5.00
2018-12-06T09:02:42.897Z,4.98
2018-12-06T09:05:10.669Z,4.96
2018-12-06T09:07:38.256Z,4.96
2018-12-06T09:10:06.608Z,4.93
2018-12-06T09:12:34.193Z,4.93
2018-12-06T09:15:01.917Z,4.92
2018-12-06T09:17:29.599Z,4.94
2018-12-06T09:19:57.261Z,4.94
2018-12-06T09:22:24.929Z,4.94
2018-12-06T09:24:52.671Z,4.88
2018-12-06T09:27:20.348Z,4.91
2018-12-06T09:29:47.957Z,4.91
2018-12-06T09:32:15.551Z,4.91
2018-12-06T09:34:43.166Z,4.89
2018-12-06T09:37:10.766Z,4.89
2018-12-06T09:39:38.462Z,4.93
2018-12-06T09:42:06.121Z,4.94
2018-12-06T09:44:33.792Z,4.96
2018-12-06T09:47:01.449Z,4.98
2018-12-06T09:49:29.114Z,4.99
2018-12-06T09:51:56.705Z,4.99
2018-12-06T09:54:24.328Z,5.02
2018-12-06T09:56:52.000Z,5.01
2018-12-06T09:59:19.661Z,4.99
2018-12-06T10:01:47.410Z,4.96
2018-12-06T10:04:15.084Z,5.00
2018-12-06T10:06:42.745Z,4.96
2018-12-06T10:09:10.413Z,5.00
2018-12-06T10:11:38.077Z,5.02
2018-12-06T10:14:05.669Z,5.02
2018-12-06T10:16:33.301Z,5.03
2018-12-06T10:19:00.961Z,5.04
2018-12-06T10:21:28.694Z,5.05
2018-12-06T10:23:56.394Z,5.07
2018-12-06T10:26:24.053Z,5.10
2018-12-06T10:28:51.804Z,5.10
2018-12-06T10:31:19.481Z,5.14
2018-12-06T10:33:47.140Z,5.16
2018-12-06T10:36:14.813Z,5.17
2018-12-06T10:38:42.469Z,5.19
2018-12-06T10:41:10.133Z,5.20
2018-12-06T10:43:37.798Z,5.23
2018-12-06T10:46:05.458Z,5.21
2018-12-06T10:48:33.048Z,5.23
2018-12-06T10:51:12.666Z,5.24
2018-12-06T10:53:40.323Z,5.24
2018-12-06T10:56:07.989Z,5.20
2018-12-06T10:58:35.653Z,5.19
2018-12-06T11:01:08.029Z,5.19
2018-12-06T11:03:37.566Z,5.19
2018-12-06T11:06:05.193Z,5.18
2018-12-06T11:08:32.848Z,5.18
2018-12-06T11:11:00.522Z,5.19
2018-12-06T11:13:28.181Z,5.19
2018-12-06T11:15:55.845Z,5.22
2018-12-06T11:18:23.509Z,5.23
2018-12-06T11:20:51.168Z,5.24
2018-12-06T11:23:18.788Z,5.25
2018-12-06T11:25:46.397Z,5.26
2018-12-06T11:28:14.054Z,5.29
2018-12-06T11:30:41.643Z,5.31
2018-12-06T11:33:09.278Z,5.33
2018-12-06T11:35:36.940Z,5.36
2018-12-06T11:38:04.609Z,5.38
2018-12-06T11:40:32.269Z,5.42
2018-12-06T11:42:59.928Z,5.48
2018-12-06T11:45:27.597Z,5.51
2018-12-06T11:47:56.069Z,5.57
2018-12-06T11:50:23.845Z,5.64
2018-12-06T11:52:51.504Z,5.74
2018-12-06T11:55:19.269Z,5.80
2018-12-06T11:57:47.038Z,5.85
2018-12-06T12:00:14.693Z,5.91
2018-12-06T12:02:42.306Z,5.95
2018-12-06T12:05:10.026Z,5.98
2018-12-06T12:07:37.637Z,5.99
2018-12-06T12:10:06.174Z,6.03
2018-12-06T12:12:33.829Z,6.06
2018-12-06T12:15:01.464Z,6.07
2018-12-06T12:17:29.156Z,6.10
2018-12-06T12:19:56.826Z,6.12
2018-12-06T12:22:24.486Z,6.13
2018-12-06T12:24:52.145Z,6.14
2018-12-06T12:27:19.809Z,6.13
2018-12-06T12:29:47.558Z,6.12
2018-12-06T12:32:15.237Z,6.11
2018-12-06T12:34:42.850Z,6.11
2018-12-06T12:37:10.461Z,6.12
2018-12-06T12:39:38.121Z,6.12
2018-12-06T12:42:06.626Z,6.13
2018-12-06T12:44:34.241Z,6.12
2018-12-06T12:47:01.929Z,6.11
2018-12-06T12:49:29.532Z,6.11
2018-12-06T12:51:57.157Z,6.12
2018-12-06T12:54:24.774Z,6.13
2018-12-06T12:56:52.358Z,6.12
2018-12-06T12:59:20.041Z,6.13
2018-12-06T13:01:47.705Z,6.13
2018-12-06T13:04:15.369Z,6.14
2018-12-06T13:06:43.029Z,6.14
2018-12-06T13:09:10.701Z,6.16
2018-12-06T13:11:38.328Z,6.15
2018-12-06T13:14:05.943Z,6.14
2018-12-06T13:16:33.579Z,6.15
2018-12-06T13:19:01.327Z,6.16
2018-12-06T13:21:29.195Z,6.15
2018-12-06T13:23:56.880Z,6.15
2018-12-06T13:26:24.641Z,6.14
2018-12-06T13:28:52.232Z,6.12
2018-12-06T13:31:19.967Z,6.13
2018-12-06T13:33:47.601Z,6.11
2018-12-06T13:36:15.289Z,6.11
2018-12-06T13:38:43.039Z,6.11
2018-12-06T13:41:10.722Z,6.06
2018-12-06T13:43:38.364Z,6.11
2018-12-06T13:46:06.736Z,6.13
2018-12-06T13:48:34.630Z,6.13
2018-12-06T13:51:02.294Z,6.14
2018-12-06T13:53:29.953Z,6.14
2018-12-06T13:55:57.576Z,6.14
2018-12-06T13:58:25.470Z,6.13
2018-12-06T14:00:53.423Z,6.13
2018-12-06T14:03:21.426Z,6.12
2018-12-06T14:05:49.085Z,6.13
2018-12-06T14:08:16.754Z,6.14
2018-12-06T14:10:44.519Z,6.12
2018-12-06T14:13:12.181Z,6.13
2018-12-06T14:15:39.842Z,6.12
2018-12-06T14:18:07.437Z,6.12
2018-12-06T14:20:35.053Z,6.13
2018-12-06T14:23:02.674Z,6.14
2018-12-06T14:25:30.284Z,6.15
2018-12-06T14:27:57.955Z,6.17
2018-12-06T14:30:26.123Z,6.17
2018-12-06T14:32:53.743Z,6.19
2018-12-06T14:35:21.436Z,6.19
2018-12-06T14:37:49.114Z,6.18
2018-12-06T14:40:16.778Z,6.19
2018-12-06T14:42:44.440Z,6.18
2018-12-06T14:45:12.104Z,6.20
2018-12-06T14:47:39.766Z,6.21
2018-12-06T14:50:07.839Z,6.23
2018-12-06T14:52:35.501Z,6.25
2018-12-06T14:55:03.174Z,6.27
2018-12-06T14:57:30.825Z,6.28
2018-12-06T14:59:58.489Z,6.29
2018-12-06T15:02:26.253Z,6.28
2018-12-06T15:04:53.917Z,6.29
2018-12-06T15:07:21.538Z,6.28
2018-12-06T15:09:49.240Z,6.27
2018-12-06T15:12:16.904Z,6.27
2018-12-06T15:14:44.569Z,6.28
2018-12-06T15:17:12.338Z,6.28
2018-12-06T15:19:39.996Z,6.29
2018-12-06T15:22:07.660Z,6.29
2018-12-06T15:24:35.296Z,6.26
2018-12-06T15:27:02.933Z,6.25
2018-12-06T15:29:30.554Z,6.22
2018-12-06T15:31:58.217Z,6.20
2018-12-06T15:34:25.849Z,6.18
2018-12-06T15:36:53.538Z,6.16
2018-12-06T15:39:21.157Z,6.15
2018-12-06T15:41:48.858Z,6.16
2018-12-06T15:44:16.527Z,6.17
2018-12-06T15:46:44.272Z,6.19
2018-12-06T15:49:12.057Z,6.20
2018-12-06T15:51:39.723Z,6.21
2018-12-06T15:54:07.486Z,6.22
2018-12-06T15:56:35.253Z,6.22
2018-12-06T15:59:03.021Z,6.23
2018-12-06T16:01:30.677Z,6.23
2018-12-06T16:03:58.301Z,6.27
2018-12-06T16:06:26.000Z,6.24
2018-12-06T16:08:53.661Z,6.24
2018-12-06T16:11:21.330Z,6.24
2018-12-06T16:13:48.993Z,6.23
2018-12-06T16:16:16.648Z,6.24
2018-12-06T16:18:44.244Z,6.23
2018-12-06T16:21:11.877Z,6.22
2018-12-06T16:23:39.543Z,6.22
2018-12-06T16:26:07.207Z,6.21
2018-12-06T16:28:34.866Z,6.22
2018-12-06T16:31:02.489Z,6.22
2018-12-06T16:33:30.189Z,6.21
2018-12-06T16:35:57.813Z,6.23
2018-12-06T16:38:25.513Z,6.24
2018-12-06T16:40:53.176Z,6.26
2018-12-06T16:43:20.848Z,6.27
2018-12-06T16:45:48.506Z,6.28
2018-12-06T16:48:16.166Z,6.31
2018-12-06T16:50:43.834Z,6.34
2018-12-06T16:53:11.489Z,6.33
2018-12-06T16:55:39.159Z,6.36
2018-12-06T16:58:06.817Z,6.38
2018-12-06T17:00:34.587Z,6.39
2018-12-06T17:03:02.274Z,6.40
2018-12-06T17:05:29.973Z,6.43
2018-12-06T17:07:57.566Z,6.44
2018-12-06T17:10:25.189Z,6.46
2018-12-06T17:12:52.901Z,6.49
2018-12-06T17:15:20.562Z,6.49
2018-12-06T17:17:48.221Z,6.51
2018-12-06T17:20:15.885Z,6.52
2018-12-06T17:22:43.549Z,6.52
2018-12-06T17:25:11.191Z,6.51
2018-12-06T17:27:38.977Z,6.52
2018-12-06T17:30:07.408Z,6.53
2018-12-06T17:32:35.025Z,6.52
2018-12-06T17:35:02.694Z,6.53
2018-12-06T17:37:30.342Z,6.56
2018-12-06T17:39:58.012Z,6.55
2018-12-06T17:42:25.783Z,6.57
2018-12-06T17:44:53.432Z,6.56
2018-12-06T17:47:21.058Z,6.55
2018-12-06T17:49:48.762Z,6.54
2018-12-06T17:52:16.429Z,6.56
2018-12-06T17:54:44.194Z,6.57
2018-12-06T17:57:11.858Z,6.57
2018-12-06T17:59:39.514Z,6.59
2018-12-06T18:02:07.209Z,6.60
2018-12-06T18:04:34.844Z,6.61
2018-12-06T18:07:02.613Z,6.68
2018-12-06T18:09:30.276Z,6.73
2018-12-06T18:11:57.901Z,6.74
2018-12-06T18:14:25.592Z,6.76
2018-12-06T18:16:53.361Z,6.77
2018-12-06T18:19:21.021Z,6.76
2018-12-06T18:21:48.647Z,6.78
2018-12-06T18:24:18.771Z,6.77
2018-12-06T18:26:46.233Z,6.79
2018-12-06T18:29:13.925Z,6.80
2018-12-06T18:31:41.598Z,6.81
2018-12-06T18:34:09.256Z,6.82
2018-12-06T18:36:36.918Z,6.83
2018-12-06T18:39:06.934Z,6.84
2018-12-06T18:41:34.565Z,6.85
2018-12-06T18:44:02.233Z,6.86
2018-12-06T18:46:29.831Z,6.87
2018-12-06T18:48:57.486Z,6.89
2018-12-06T18:51:25.146Z,6.92
2018-12-06T18:53:52.805Z,6.94
2018-12-06T18:56:20.640Z,6.96
2018-12-06T18:58:48.342Z,6.98
2018-12-06T19:01:15.945Z,7.00
2018-12-06T19:03:43.561Z,7.03
2018-12-06T19:06:11.229Z,7.05
2018-12-06T19:08:38.885Z,7.08
2018-12-06T19:11:06.483Z,7.10
2018-12-06T19:13:34.211Z,7.02
2018-12-06T19:16:01.886Z,7.16
2018-12-06T19:18:29.545Z,7.19
2018-12-06T19:20:57.201Z,7.21
2018-12-06T19:23:24.826Z,7.25
2018-12-06T19:25:52.422Z,7.29
2018-12-06T19:28:20.089Z,7.31
2018-12-06T19:30:47.755Z,7.34
2018-12-06T19:33:15.412Z,7.39
2018-12-06T19:35:43.082Z,7.40
2018-12-06T19:38:10.742Z,7.44
2018-12-06T19:40:38.401Z,7.47
2018-12-06T19:43:06.069Z,7.49
2018-12-06T19:45:33.828Z,7.53
2018-12-06T19:48:01.494Z,7.55
2018-12-06T19:50:29.152Z,7.58
2018-12-06T19:52:56.818Z,7.62
2018-12-06T19:55:24.484Z,7.66
2018-12-06T19:57:52.149Z,7.68
2018-12-06T20:00:19.777Z,7.71
2018-12-06T20:02:47.469Z,7.74
2018-12-06T20:05:15.136Z,7.78
2018-12-06T20:07:42.800Z,7.82
2018-12-06T20:10:10.461Z,7.86
2018-12-06T20:12:38.122Z,7.89
2018-12-06T20:15:05.921Z,7.92
2018-12-06T20:17:33.550Z,7.96
2018-12-06T20:20:01.213Z,7.98
2018-12-06T20:22:28.811Z,8.03
2018-12-06T20:24:56.537Z,8.07
2018-12-06T20:27:24.205Z,8.11
2018-12-06T20:29:51.873Z,8.14
2018-12-06T20:32:19.525Z,8.18
2018-12-06T20:34:47.189Z,8.21
2018-12-06T20:37:14.849Z,8.26
2018-12-06T20:39:42.516Z,8.28
2018-12-06T20:42:10.177Z,8.31
2018-12-06T20:44:37.773Z,8.34
2018-12-06T20:47:05.501Z,8.36
2018-12-06T20:49:33.165Z,8.38
2018-12-06T20:52:00.788Z,8.42
2018-12-06T20:54:28.489Z,8.43
2018-12-06T20:56:56.106Z,8.46
2018-12-06T20:59:23.714Z,8.48
2018-12-06T21:01:51.421Z,8.52
2018-12-06T21:04:19.232Z,8.54
2018-12-06T21:06:46.981Z,8.57
2018-12-06T21:09:14.573Z,8.59
2018-12-06T21:11:42.193Z,8.61
2018-12-06T21:14:09.903Z,8.63
2018-12-06T21:16:37.525Z,8.65
2018-12-06T21:19:05.225Z,8.69
2018-12-06T21:21:32.897Z,8.71
2018-12-06T21:24:00.558Z,8.74
2018-12-06T21:26:28.213Z,8.76
2018-12-06T21:28:55.877Z,8.77
2018-12-06T21:31:23.538Z,8.79
2018-12-06T21:33:51.208Z,8.82
2018-12-06T21:36:18.861Z,8.83
2018-12-06T21:38:46.527Z,8.85
2018-12-06T21:41:15.824Z,8.86
2018-12-06T21:43:43.494Z,8.89
2018-12-06T21:46:11.157Z,8.90
2018-12-06T21:48:38.822Z,8.91
2018-12-06T21:51:06.476Z,8.93
2018-12-06T21:53:34.146Z,8.95
2018-12-06T21:56:01.801Z,8.94
2018-12-06T21:58:29.466Z,8.97
2018-12-06T22:00:57.128Z,8.99
2018-12-06T22:03:24.789Z,9.00
2018-12-06T22:05:52.453Z,9.00
2018-12-06T22:08:20.117Z,9.03
2018-12-06T22:10:47.781Z,9.04
2018-12-06T22:13:15.445Z,9.05
2018-12-06T22:15:43.105Z,9.07
2018-12-06T22:18:10.733Z,9.11
2018-12-06T22:20:38.436Z,9.12
2018-12-06T22:23:06.098Z,9.13
2018-12-06T22:25:33.756Z,9.16
2018-12-06T22:28:01.833Z,9.18
2018-12-06T22:30:29.497Z,9.19
2018-12-06T22:32:57.156Z,9.22
2018-12-06T22:35:24.777Z,9.23
2018-12-06T22:37:53.421Z,9.23
2018-12-06T22:40:21.065Z,9.25
2018-12-06T22:42:48.734Z,9.26
2018-12-06T22:45:28.357Z,9.12
2018-12-06T22:47:55.952Z,9.29
2018-12-06T22:50:23.610Z,9.32
2018-12-06T22:52:51.264Z,9.33
2018-12-06T22:55:18.921Z,9.35
2018-12-06T22:57:46.516Z,9.36
2018-12-06T23:00:14.685Z,9.38
2018-12-06T23:02:42.322Z,9.40
2018-12-06T23:05:09.981Z,9.41
2018-12-06T23:10:11.554Z,9.45
2018-12-06T23:12:39.228Z,9.48
2018-12-06T23:15:07.389Z,9.49
2018-12-06T23:17:35.053Z,9.50
2018-12-06T23:20:03.163Z,9.54
2018-12-06T23:22:30.793Z,9.57
2018-12-06T23:24:58.460Z,9.58
2018-12-06T23:27:26.117Z,9.60
2018-12-06T23:29:53.777Z,9.63
2018-12-06T23:32:21.443Z,9.66
2018-12-06T23:34:49.226Z,9.67
2018-12-06T23:37:16.877Z,9.70
2018-12-06T23:39:44.614Z,9.72
2018-12-06T23:42:12.277Z,9.73
2018-12-06T23:44:39.865Z,9.73
2018-12-06T23:47:07.521Z,9.77
2018-12-06T23:49:35.185Z,9.78
2018-12-06T23:52:02.845Z,9.80
2018-12-06T23:54:30.509Z,9.81
2018-12-06T23:56:58.176Z,9.82
2018-12-06T23:59:25.832Z,9.83
